Time;durP1;ratioP1;P1;durP2;ratioP2;P2;SDS_P1;SDS_P2;PMS_P1;PMS_P2;Temp;Humidity;BMP_temperature;BMP_pressure;BME280_temperature;BME280_humidity;BME280_pressure;Samples;Min_cycle;Max_cycle;Signal;HPM_P1;HPM_P2
2023/07/29 00:01:34;;;;;;;4.80;2.10;;;19.30;99.90;;;;;;5035676;28;20120;-54
2023/07/29 00:04:00;;;;;;;4.72;1.88;;;19.20;99.90;;;;;;5036233;28;20029;-53
2023/07/29 00:06:26;;;;;;;8.90;2.10;;;19.00;99.90;;;;;;5035366;28;20033;-55
2023/07/29 00:08:52;;;;;;;4.47;2.00;;;19.10;99.90;;;;;;5034271;28;20029;-54
2023/07/29 00:11:18;;;;;;;3.47;1.88;;;19.20;99.90;;;;;;5038740;28;20973;-53
2023/07/29 00:13:44;;;;;;;3.97;2.22;;;19.20;99.90;;;;;;5038920;28;20041;-54
2023/07/29 00:16:09;;;;;;;3.20;2.08;;;19.10;99.90;;;;;;5037740;28;20037;-53
2023/07/29 00:18:35;;;;;;;5.68;2.17;;;19.40;99.90;;;;;;5039195;28;20033;-53
2023/07/29 00:21:00;;;;;;;2.80;2.22;;;19.20;99.90;;;;;;5040980;28;20546;-54
2023/07/29 00:23:26;;;;;;;2.15;1.83;;;19.30;99.90;;;;;;5039205;28;20037;-53
2023/07/29 00:25:52;;;;;;;4.68;2.38;;;19.20;99.90;;;;;;5034715;28;20044;-55
2023/07/29 00:28:17;;;;;;;3.83;2.38;;;19.30;99.90;;;;;;5038680;28;20378;-54
2023/07/29 00:30:43;;;;;;;2.88;2.08;;;19.30;99.90;;;;;;5039680;28;20056;-54
2023/07/29 00:33:09;;;;;;;6.60;2.28;;;19.40;99.90;;;;;;5038907;28;20041;-53
2023/07/29 00:35:34;;;;;;;4.45;2.30;;;19.20;99.90;;;;;;5040509;28;20029;-53
2023/07/29 00:38:00;;;;;;;3.05;1.90;;;19.20;99.90;;;;;;5039063;28;20033;-54
2023/07/29 00:40:28;;;;;;;2.95;2.30;;;19.00;99.90;;;;;;5037817;28;20422;-54
2023/07/29 00:42:54;;;;;;;3.38;2.15;;;19.10;99.90;;;;;;5037435;28;20046;-53
2023/07/29 00:45:19;;;;;;;3.00;2.20;;;19.00;99.90;;;;;;5037312;28;20033;-54
2023/07/29 00:47:46;;;;;;;4.80;2.00;;;19.10;99.90;;;;;;5039104;28;20116;-53
2023/07/29 00:50:12;;;;;;;3.10;2.20;;;19.30;99.90;;;;;;5038793;28;21103;-52
2023/07/29 00:52:38;;;;;;;3.40;2.45;;;19.10;99.90;;;;;;5038260;28;20025;-61
2023/07/29 00:55:05;;;;;;;2.22;1.95;;;19.10;99.90;;;;;;5036036;28;20487;-52
2023/07/29 00:57:32;;;;;;;3.85;2.30;;;19.20;99.90;;;;;;5039137;28;20045;-53
2023/07/29 00:59:58;;;;;;;2.20;2.00;;;19.40;99.90;;;;;;5038210;28;20644;-54
2023/07/29 01:02:24;;;;;;;2.92;2.25;;;19.30;99.90;;;;;;5039313;28;20551;-54
2023/07/29 01:04:59;;;;;;;2.75;2.00;;;19.40;99.90;;;;;;5038998;28;20034;-54
2023/07/29 01:07:39;;;;;;;4.00;2.17;;;19.20;99.90;;;;;;5037492;28;20072;-53
2023/07/29 01:10:22;;;;;;;2.80;2.00;;;19.50;99.90;;;;;;5051693;28;20041;-54
2023/07/29 01:12:55;;;;;;;4.20;2.80;;;19.50;99.90;;;;;;5039978;28;20086;-53
2023/07/29 01:15:29;;;;;;;5.28;2.60;;;19.50;99.90;;;;;;5035270;28;20611;-53
2023/07/29 01:18:18;;;;;;;2.38;2.17;;;19.50;99.90;;;;;;5037326;28;20568;-54
2023/07/29 01:20:46;;;;;;;6.43;2.45;;;19.50;99.90;;;;;;5038104;28;20485;-54
2023/07/29 01:23:11;;;;;;;3.53;2.20;;;19.50;99.90;;;;;;5036761;28;20485;-53
2023/07/29 01:25:37;;;;;;;3.40;2.15;;;19.50;99.90;;;;;;5033663;28;20032;-54
2023/07/29 01:28:03;;;;;;;4.45;2.67;;;19.30;99.90;;;;;;5038247;28;20036;-54
2023/07/29 01:30:39;;;;;;;4.72;2.38;;;19.40;99.90;;;;;;5039561;28;20167;-53
2023/07/29 01:33:18;;;;;;;3.13;2.22;;;19.30;99.90;;;;;;5037482;28;20033;-57
2023/07/29 01:36:02;;;;;;;3.72;2.40;;;19.40;99.90;;;;;;5038266;28;20064;-54
2023/07/29 01:38:33;;;;;;;4.10;2.60;;;19.30;99.90;;;;;;5037057;28;20131;-54
2023/07/29 01:41:01;;;;;;;3.50;2.90;;;19.40;99.90;;;;;;5038441;28;20029;-53
2023/07/29 01:43:30;;;;;;;4.22;2.72;;;19.70;99.90;;;;;;5038748;28;20033;-52
2023/07/29 01:45:56;;;;;;;4.78;2.67;;;20.10;99.90;;;;;;5037087;28;20029;-54
2023/07/29 01:48:22;;;;;;;9.98;2.92;;;19.80;99.90;;;;;;5038179;28;20655;-53
2023/07/29 01:50:47;;;;;;;5.22;2.60;;;20.00;99.90;;;;;;5038651;28;20059;-53
2023/07/29 01:53:13;;;;;;;4.63;3.80;;;19.40;99.90;;;;;;5036640;28;20060;-52
2023/07/29 01:55:39;;;;;;;6.05;4.20;;;19.40;99.90;;;;;;5038720;28;20404;-54
2023/07/29 01:58:05;;;;;;;5.55;4.15;;;19.40;99.90;;;;;;5035672;28;20492;-53
2023/07/29 02:00:30;;;;;;;4.97;2.80;;;19.40;99.90;;;;;;5036543;28;20041;-53
2023/07/29 02:02:56;;;;;;;5.32;2.67;;;19.30;99.90;;;;;;5038733;28;20064;-54
2023/07/29 02:05:21;;;;;;;5.95;3.20;;;19.20;99.90;;;;;;5036475;28;20071;-54
2023/07/29 02:07:47;;;;;;;7.32;3.20;;;19.30;99.90;;;;;;5037656;28;20033;-54
2023/07/29 02:10:13;;;;;;;4.03;3.03;;;19.30;99.90;;;;;;5039435;28;20416;-54
2023/07/29 02:12:38;;;;;;;5.07;3.63;;;19.40;99.90;;;;;;5035906;28;20038;-53
2023/07/29 02:15:05;;;;;;;3.80;3.38;;;19.40;99.90;;;;;;5036409;28;20048;-53
2023/07/29 02:17:31;;;;;;;7.75;3.63;;;19.60;99.90;;;;;;5035999;28;20041;-53
2023/07/29 02:19:56;;;;;;;6.55;3.42;;;19.50;99.90;;;;;;5038569;28;20056;-53
2023/07/29 02:22:22;;;;;;;6.78;3.90;;;19.20;99.90;;;;;;5033691;28;20411;-55
2023/07/29 02:24:47;;;;;;;6.32;3.90;;;19.50;99.90;;;;;;5038587;28;20028;-53
2023/07/29 02:27:13;;;;;;;6.45;3.97;;;19.50;99.90;;;;;;5038266;28;20429;-54
2023/07/29 02:29:39;;;;;;;6.65;3.65;;;19.40;99.90;;;;;;5037732;28;20052;-54
2023/07/29 02:32:04;;;;;;;6.50;3.80;;;19.40;99.90;;;;;;5037910;28;20400;-55
2023/07/29 02:34:30;;;;;;;6.53;3.72;;;19.40;99.90;;;;;;5034383;28;20072;-54
2023/07/29 02:36:56;;;;;;;6.32;3.53;;;19.30;99.90;;;;;;5035310;28;20036;-54
2023/07/29 02:39:23;;;;;;;8.20;3.90;;;19.20;99.90;;;;;;5034466;28;20104;-55
2023/07/29 02:41:48;;;;;;;7.22;4.10;;;19.20;99.90;;;;;;5037376;28;20102;-52
2023/07/29 02:44:14;;;;;;;10.35;4.05;;;19.30;99.90;;;;;;5033738;28;20049;-55
2023/07/29 02:46:40;;;;;;;6.85;3.85;;;19.20;99.90;;;;;;5033603;28;21677;-51
2023/07/29 02:49:06;;;;;;;6.47;4.10;;;19.20;99.90;;;;;;5036622;28;20040;-52
2023/07/29 02:51:31;;;;;;;6.45;4.93;;;19.20;99.90;;;;;;5036902;28;20069;-55
2023/07/29 02:53:57;;;;;;;9.18;4.20;;;19.40;99.90;;;;;;5037284;28;20087;-54
2023/07/29 02:56:23;;;;;;;8.32;4.72;;;19.40;99.90;;;;;;5034800;28;20091;-54
2023/07/29 02:58:51;;;;;;;5.88;4.75;;;19.50;99.90;;;;;;5038310;28;20515;-53
2023/07/29 03:01:17;;;;;;;8.57;5.03;;;20.00;99.90;;;;;;5037883;28;20033;-54
2023/07/29 03:03:43;;;;;;;6.60;4.82;;;19.70;99.90;;;;;;5036670;28;20037;-53
2023/07/29 03:06:11;;;;;;;10.07;5.15;;;19.80;99.90;;;;;;5035174;28;20130;-52
2023/07/29 03:08:37;;;;;;;10.57;5.22;;;19.30;99.90;;;;;;5034900;28;20044;-54
2023/07/29 03:11:13;;;;;;;11.77;5.03;;;19.70;99.90;;;;;;5032029;28;20094;-54
2023/07/29 03:13:39;;;;;;;8.93;4.80;;;19.50;99.90;;;;;;5036770;28;20128;-58
2023/07/29 03:16:05;;;;;;;8.80;5.05;;;19.40;99.90;;;;;;5035567;28;20583;-54
2023/07/29 03:18:31;;;;;;;9.18;5.05;;;19.30;99.90;;;;;;5032953;28;20048;-54
2023/07/29 03:20:56;;;;;;;6.25;4.82;;;19.40;99.90;;;;;;5034020;28;20131;-54
2023/07/29 03:23:22;;;;;;;6.82;5.03;;;19.40;99.90;;;;;;5034573;28;20048;-55
2023/07/29 03:25:56;;;;;;;9.48;5.55;;;19.40;99.90;;;;;;5039173;28;20644;-54
2023/07/29 03:28:23;;;;;;;8.57;5.65;;;19.60;99.90;;;;;;5035133;28;20507;-54
2023/07/29 03:30:48;;;;;;;7.78;5.93;;;19.50;99.90;;;;;;5037206;28;20031;-56
2023/07/29 03:33:14;;;;;;;10.23;5.93;;;20.10;99.90;;;;;;5036294;28;20041;-53
2023/07/29 03:35:39;;;;;;;9.20;6.05;;;20.00;99.90;;;;;;5033272;28;20546;-55
2023/07/29 03:38:05;;;;;;;9.05;6.10;;;19.60;99.90;;;;;;5034996;28;20057;-52
2023/07/29 03:40:31;;;;;;;11.73;6.10;;;20.30;99.90;;;;;;5035674;28;20103;-54
2023/07/29 03:42:56;;;;;;;9.07;6.57;;;19.90;99.90;;;;;;5038053;28;20087;-55
2023/07/29 03:45:22;;;;;;;9.02;6.50;;;19.90;99.90;;;;;;5034473;28;20452;-54
2023/07/29 03:47:47;;;;;;;11.57;6.47;;;19.90;99.90;;;;;;5037030;28;20032;-54
2023/07/29 03:50:13;;;;;;;8.85;6.90;;;19.90;99.90;;;;;;5035977;28;20071;-52
2023/07/29 03:52:39;;;;;;;8.75;6.63;;;19.70;99.90;;;;;;5035225;28;20432;-53
2023/07/29 03:55:05;;;;;;;12.50;6.53;;;19.50;99.90;;;;;;5032430;28;20146;-53
2023/07/29 03:57:30;;;;;;;10.98;6.90;;;19.80;99.90;;;;;;5034403;28;20029;-55
2023/07/29 03:59:56;;;;;;;8.40;6.45;;;19.60;99.90;;;;;;5037344;28;20444;-54
2023/07/29 04:02:22;;;;;;;11.68;6.00;;;19.60;99.90;;;;;;5032544;28;20045;-54
2023/07/29 04:04:48;;;;;;;7.55;6.13;;;19.50;99.90;;;;;;5035474;28;20039;-55
2023/07/29 04:07:14;;;;;;;7.55;6.30;;;19.60;99.90;;;;;;5035099;28;20041;-55
2023/07/29 04:09:39;;;;;;;12.95;6.32;;;19.80;99.90;;;;;;5034083;28;20125;-53
2023/07/29 04:12:05;;;;;;;8.50;6.30;;;19.50;99.90;;;;;;5035394;28;21127;-53
2023/07/29 04:14:31;;;;;;;13.23;7.10;;;19.50;99.90;;;;;;5036294;28;20063;-54
2023/07/29 04:16:56;;;;;;;13.02;6.65;;;19.30;99.90;;;;;;5035598;28;20552;-52
2023/07/29 04:19:22;;;;;;;7.32;6.30;;;19.40;99.90;;;;;;5036358;28;20044;-55
2023/07/29 04:21:48;;;;;;;11.85;7.72;;;19.30;99.90;;;;;;5036008;28;20040;-55
2023/07/29 04:24:13;;;;;;;11.68;7.75;;;19.40;99.90;;;;;;5035417;28;20536;-54
2023/07/29 04:26:39;;;;;;;16.42;7.93;;;19.40;99.90;;;;;;5036075;28;20720;-54
2023/07/29 04:29:05;;;;;;;13.77;8.05;;;19.20;99.90;;;;;;5036658;28;20393;-53
2023/07/29 04:31:30;;;;;;;10.85;7.95;;;19.50;99.90;;;;;;5037083;28;20033;-55
2023/07/29 04:33:56;;;;;;;13.23;7.72;;;19.20;99.90;;;;;;5034712;28;20065;-56
2023/07/29 04:36:21;;;;;;;11.55;8.45;;;19.20;99.90;;;;;;5033349;28;20037;-56
2023/07/29 04:38:47;;;;;;;10.88;7.75;;;19.20;99.90;;;;;;5037800;28;20452;-55
2023/07/29 04:41:13;;;;;;;9.25;7.40;;;19.20;99.90;;;;;;5034445;28;20032;-54
2023/07/29 04:43:38;;;;;;;8.75;6.93;;;19.10;99.90;;;;;;5035945;28;20033;-53
2023/07/29 04:46:07;;;;;;;11.73;6.72;;;17.00;99.90;;;;;;5033331;28;20784;-53
2023/07/29 04:48:33;;;;;;;9.73;6.72;;;19.50;99.90;;;;;;5034846;28;20359;-52
2023/07/29 04:50:59;;;;;;;9.57;6.55;;;19.10;99.90;;;;;;5033673;28;21087;-54
2023/07/29 04:53:24;;;;;;;11.35;6.93;;;19.10;99.90;;;;;;5033265;28;20056;-53
2023/07/29 04:55:50;;;;;;;11.50;6.57;;;19.10;99.90;;;;;;5038185;28;20439;-54
2023/07/29 04:58:15;;;;;;;12.18;6.80;;;19.20;99.90;;;;;;5038455;28;20033;-53
2023/07/29 05:00:41;;;;;;;8.07;5.90;;;19.00;99.90;;;;;;5038001;28;20040;-54
2023/07/29 05:03:07;;;;;;;8.30;5.65;;;19.00;99.90;;;;;;5040185;28;20033;-53
2023/07/29 05:05:32;;;;;;;9.68;5.53;;;19.00;99.90;;;;;;5037162;28;20029;-54
2023/07/29 05:07:58;;;;;;;8.57;5.00;;;19.00;99.90;;;;;;5038782;28;20123;-53
2023/07/29 05:10:24;;;;;;;9.10;5.13;;;19.10;99.90;;;;;;5037484;28;20075;-54
2023/07/29 05:12:50;;;;;;;9.23;5.05;;;19.10;99.90;;;;;;5039315;28;20459;-57
2023/07/29 05:15:15;;;;;;;9.82;4.88;;;19.20;99.90;;;;;;5037527;28;20072;-54
2023/07/29 05:17:41;;;;;;;7.43;4.63;;;19.40;99.90;;;;;;5038809;28;20040;-54
2023/07/29 05:20:07;;;;;;;5.70;4.07;;;19.30;99.90;;;;;;5035028;28;20314;-53
2023/07/29 05:22:33;;;;;;;6.68;4.25;;;19.00;99.90;;;;;;5038071;28;20044;-53
2023/07/29 05:24:58;;;;;;;7.22;4.15;;;19.20;99.90;;;;;;5035959;28;20037;-55
2023/07/29 05:27:24;;;;;;;8.60;4.20;;;19.30;99.90;;;;;;5039617;28;20033;-52
2023/07/29 05:29:50;;;;;;;8.68;4.38;;;19.20;99.90;;;;;;5039491;28;20487;-55
2023/07/29 05:32:15;;;;;;;10.93;4.30;;;19.20;99.90;;;;;;5038075;28;20789;-53
2023/07/29 05:34:41;;;;;;;6.80;4.40;;;19.30;99.90;;;;;;5038691;28;20038;-54
2023/07/29 05:37:06;;;;;;;8.25;4.10;;;19.20;99.90;;;;;;5032997;28;20811;-53
2023/07/29 05:39:33;;;;;;;7.43;4.13;;;19.40;99.90;;;;;;5038182;28;20037;-55
2023/07/29 05:41:58;;;;;;;9.00;4.63;;;19.50;99.90;;;;;;5038853;28;20047;-55
2023/07/29 05:44:24;;;;;;;12.65;5.05;;;19.50;99.90;;;;;;5037891;28;20049;-54
2023/07/29 05:46:50;;;;;;;9.35;5.40;;;19.40;99.90;;;;;;5036033;28;20055;-54
2023/07/29 05:49:15;;;;;;;7.18;5.07;;;19.30;99.90;;;;;;5039458;28;20063;-54
2023/07/29 05:51:41;;;;;;;9.23;5.20;;;19.40;99.90;;;;;;5037012;28;20037;-54
2023/07/29 05:54:06;;;;;;;8.85;5.35;;;19.20;99.90;;;;;;5037045;28;20032;-53
2023/07/29 05:56:32;;;;;;;8.10;5.07;;;19.00;99.90;;;;;;5040514;28;20404;-53
2023/07/29 05:58:58;;;;;;;8.75;5.25;;;19.30;99.90;;;;;;5037561;28;20029;-54
2023/07/29 06:01:23;;;;;;;10.05;5.13;;;19.40;99.90;;;;;;5036558;28;20033;-54
2023/07/29 06:03:49;;;;;;;10.05;4.90;;;19.60;99.90;;;;;;5039637;28;20037;-52
2023/07/29 06:06:15;;;;;;;9.90;4.88;;;19.20;99.90;;;;;;5036509;28;20511;-53
2023/07/29 06:08:41;;;;;;;11.93;4.70;;;19.40;99.90;;;;;;5035759;28;20091;-53
2023/07/29 06:11:07;;;;;;;7.60;4.10;;;19.50;99.90;;;;;;5036794;28;20737;-54
2023/07/29 06:13:32;;;;;;;9.15;4.32;;;19.30;99.90;;;;;;5034766;28;20037;-54
2023/07/29 06:15:58;;;;;;;8.85;4.10;;;19.40;99.90;;;;;;5033321;28;20404;-53
2023/07/29 06:18:24;;;;;;;11.52;4.18;;;19.60;99.90;;;;;;5036591;28;20040;-55
2023/07/29 06:20:50;;;;;;;6.10;3.95;;;19.30;99.90;;;;;;5037025;28;20029;-54
2023/07/29 06:23:16;;;;;;;4.82;3.50;;;19.50;99.90;;;;;;5035893;28;20043;-52
2023/07/29 06:25:41;;;;;;;5.25;3.53;;;19.30;99.90;;;;;;5037920;28;20037;-53
2023/07/29 06:28:08;;;;;;;7.88;3.70;;;19.10;99.90;;;;;;5037860;28;20033;-53
2023/07/29 06:30:34;;;;;;;10.15;3.65;;;19.30;99.90;;;;;;5034942;28;20029;-53
2023/07/29 06:32:59;;;;;;;7.65;3.13;;;19.30;99.90;;;;;;5038594;28;20048;-53
2023/07/29 06:35:25;;;;;;;8.23;3.30;;;19.40;99.90;;;;;;5034960;28;20041;-53
2023/07/29 06:37:50;;;;;;;6.05;3.55;;;19.40;99.90;;;;;;5034474;28;20041;-53
2023/07/29 06:40:16;;;;;;;4.70;3.00;;;19.50;99.90;;;;;;5037472;28;20029;-53
2023/07/29 06:42:42;;;;;;;6.50;3.50;;;19.60;99.90;;;;;;5034664;28;20033;-53
2023/07/29 06:45:08;;;;;;;7.95;3.60;;;19.60;99.90;;;;;;5036426;28;20696;-55
2023/07/29 06:47:34;;;;;;;7.40;3.50;;;19.60;99.90;;;;;;5036638;28;20037;-53
2023/07/29 06:49:59;;;;;;;7.55;3.17;;;19.60;99.90;;;;;;5036020;28;20047;-53
2023/07/29 06:52:25;;;;;;;10.60;3.42;;;19.70;99.90;;;;;;5036874;28;20732;-51
2023/07/29 06:54:50;;;;;;;6.63;3.08;;;19.80;99.90;;;;;;5037199;28;20065;-51
2023/07/29 06:57:19;;;;;;;5.93;2.80;;;19.60;99.90;;;;;;5037075;28;20468;-53
2023/07/29 06:59:45;;;;;;;8.40;3.20;;;19.70;99.90;;;;;;5024430;28;20790;-53
2023/07/29 07:02:10;;;;;;;5.53;2.92;;;19.70;99.90;;;;;;5034895;28;20041;-50
2023/07/29 07:04:36;;;;;;;8.23;3.15;;;19.90;99.90;;;;;;5037082;28;20041;-52
2023/07/29 07:07:02;;;;;;;6.10;3.17;;;20.00;99.90;;;;;;5037128;28;20039;-51
2023/07/29 07:09:27;;;;;;;4.78;3.05;;;20.10;99.90;;;;;;5036283;28;20033;-52
2023/07/29 07:11:53;;;;;;;5.40;2.72;;;20.10;99.90;;;;;;5033245;28;20048;-53
2023/07/29 07:14:18;;;;;;;3.78;2.65;;;20.20;99.90;;;;;;5033770;28;20167;-52
2023/07/29 07:16:44;;;;;;;3.35;2.20;;;20.20;99.90;;;;;;5034328;28;20044;-52
2023/07/29 07:19:10;;;;;;;8.30;2.72;;;20.20;99.90;;;;;;5035662;28;20124;-53
2023/07/29 07:21:36;;;;;;;6.75;2.70;;;20.20;99.90;;;;;;5037388;28;20981;-51
2023/07/29 07:24:01;;;;;;;3.78;2.30;;;20.30;99.90;;;;;;5030295;28;20094;-52
2023/07/29 07:26:27;;;;;;;6.85;2.30;;;20.30;99.90;;;;;;5039072;28;20076;-55
2023/07/29 07:28:52;;;;;;;6.45;2.33;;;20.30;99.90;;;;;;5036666;28;20043;-52
2023/07/29 07:31:18;;;;;;;6.00;2.28;;;20.30;99.90;;;;;;5033091;28;20064;-52
2023/07/29 07:33:44;;;;;;;3.30;1.95;;;20.30;99.90;;;;;;5035302;28;20048;-56
2023/07/29 07:36:10;;;;;;;2.72;1.80;;;20.40;99.90;;;;;;5034563;28;20449;-53
2023/07/29 07:38:36;;;;;;;4.35;1.88;;;20.60;99.90;;;;;;5036813;28;20636;-53
2023/07/29 07:41:02;;;;;;;4.40;1.80;;;21.30;99.90;;;;;;5036450;28;20049;-50
2023/07/29 07:43:27;;;;;;;4.78;1.98;;;20.90;99.90;;;;;;5035509;28;20056;-52
2023/07/29 07:46:00;;;;;;;2.38;1.60;;;21.10;99.90;;;;;;5034095;28;20083;-52
2023/07/29 07:48:27;;;;;;;3.85;1.80;;;21.20;99.90;;;;;;5027972;28;20048;-53
2023/07/29 07:50:53;;;;;;;4.03;2.10;;;20.80;99.90;;;;;;5038923;28;20067;-53
2023/07/29 07:53:19;;;;;;;3.80;1.85;;;21.00;99.90;;;;;;5032838;28;20053;-52
2023/07/29 07:55:45;;;;;;;5.05;2.10;;;20.90;99.90;;;;;;5034712;28;20118;-53
2023/07/29 07:58:11;;;;;;;6.88;2.08;;;21.00;99.90;;;;;;5025502;28;20486;-53
2023/07/29 08:00:36;;;;;;;6.97;2.13;;;21.00;99.90;;;;;;5034443;28;20120;-54
2023/07/29 08:03:02;;;;;;;4.80;1.98;;;21.20;99.90;;;;;;5035199;28;20384;-53
2023/07/29 08:05:27;;;;;;;2.63;1.55;;;21.30;99.90;;;;;;5036628;28;20582;-54
2023/07/29 08:07:53;;;;;;;3.33;1.92;;;21.40;99.90;;;;;;5034949;28;20033;-59
2023/07/29 08:10:19;;;;;;;4.95;1.70;;;21.40;99.90;;;;;;5034915;28;20436;-53
2023/07/29 08:12:44;;;;;;;3.92;1.90;;;21.80;99.90;;;;;;5036693;28;20083;-53
2023/07/29 08:15:10;;;;;;;4.90;2.00;;;21.60;99.90;;;;;;5034051;28;20116;-53
2023/07/29 08:17:35;;;;;;;6.20;1.80;;;21.70;99.90;;;;;;5037922;28;20479;-53
2023/07/29 08:20:01;;;;;;;3.42;1.60;;;21.80;99.90;;;;;;5037026;28;20037;-52
2023/07/29 08:22:26;;;;;;;5.57;1.58;;;21.50;99.90;;;;;;5024452;28;20037;-54
2023/07/29 08:24:52;;;;;;;3.17;1.65;;;21.50;99.90;;;;;;5035101;28;20033;-54
2023/07/29 08:27:18;;;;;;;6.15;1.70;;;21.80;99.90;;;;;;5034252;28;20036;-54
2023/07/29 08:29:43;;;;;;;4.18;1.50;;;20.80;99.90;;;;;;5036966;28;20122;-54
2023/07/29 08:32:09;;;;;;;1.80;1.52;;;21.90;99.90;;;;;;5038293;28;20119;-54
2023/07/29 08:34:35;;;;;;;5.70;1.20;;;;;;;;;;5038821;28;20262;-53
2023/07/29 08:37:01;;;;;;;4.63;1.42;;;22.30;99.90;;;;;;5039320;28;20499;-53
2023/07/29 08:39:28;;;;;;;2.30;1.50;;;22.50;99.90;;;;;;5039447;28;20025;-54
2023/07/29 08:42:07;;;;;;;1.95;1.30;;;22.50;99.90;;;;;;5037591;28;20528;-54
2023/07/29 08:44:39;;;;;;;2.70;1.35;;;22.40;99.90;;;;;;5038602;28;20384;-55
2023/07/29 08:47:05;;;;;;;1.73;1.40;;;22.30;99.90;;;;;;5041917;28;20086;-53
2023/07/29 08:49:32;;;;;;;2.38;1.40;;;22.20;99.90;;;;;;5035211;28;20049;-52
2023/07/29 08:51:58;;;;;;;3.22;1.40;;;22.20;99.90;;;;;;5039402;28;20533;-57
2023/07/29 08:54:24;;;;;;;3.15;1.83;;;22.20;99.90;;;;;;5039657;28;20044;-54
2023/07/29 08:56:50;;;;;;;3.13;1.60;;;22.10;99.90;;;;;;5041417;28;20077;-51
2023/07/29 08:59:17;;;;;;;3.22;1.40;;;22.20;99.90;;;;;;5035891;28;20808;-53
2023/07/29 09:01:43;;;;;;;2.97;1.60;;;22.10;99.90;;;;;;5027203;28;20045;-53
2023/07/29 09:04:09;;;;;;;5.72;1.70;;;22.20;99.90;;;;;;5032087;28;20037;-53
2023/07/29 09:06:38;;;;;;;1.83;1.50;;;22.20;99.90;;;;;;5035553;28;20124;-53
2023/07/29 09:09:04;;;;;;;5.88;1.60;;;22.20;99.90;;;;;;5037972;28;20174;-54
2023/07/29 09:11:30;;;;;;;3.13;2.10;;;22.10;99.90;;;;;;5035621;28;20064;-54
2023/07/29 09:13:56;;;;;;;3.13;1.88;;;22.10;99.90;;;;;;5038949;28;20033;-53
2023/07/29 09:16:22;;;;;;;5.35;2.05;;;22.00;99.90;;;;;;5034794;28;20102;-53
2023/07/29 09:18:52;;;;;;;3.55;1.73;;;22.00;99.90;;;;;;5039079;28;20423;-53
2023/07/29 09:21:22;;;;;;;8.45;2.33;;;22.00;99.90;;;;;;5037612;28;20423;-54
2023/07/29 09:23:50;;;;;;;2.80;1.90;;;21.90;99.90;;;;;;5037759;28;20508;-54
2023/07/29 09:26:23;;;;;;;5.68;1.77;;;21.90;99.90;;;;;;5041604;28;20045;-53
2023/07/29 09:28:55;;;;;;;2.75;2.00;;;21.80;99.90;;;;;;5039152;28;20037;-53
2023/07/29 09:31:26;;;;;;;4.93;2.10;;;21.90;99.90;;;;;;5036061;28;20040;-54
2023/07/29 09:33:59;;;;;;;2.33;1.90;;;21.80;99.90;;;;;;5038841;28;20508;-53
2023/07/29 09:36:26;;;;;;;2.83;1.83;;;22.20;99.90;;;;;;5053587;28;20420;-53
2023/07/29 09:38:56;;;;;;;4.03;2.15;;;22.20;99.90;;;;;;5036634;28;20026;-54
2023/07/29 09:41:26;;;;;;;3.90;2.00;;;22.30;99.90;;;;;;5035734;28;20045;-53
2023/07/29 09:44:02;;;;;;;4.78;2.15;;;22.20;99.90;;;;;;5035060;28;20037;-53
2023/07/29 09:46:38;;;;;;;2.85;1.70;;;22.30;99.90;;;;;;5026831;28;20401;-52
2023/07/29 09:49:05;;;;;;;3.17;2.10;;;22.40;99.90;;;;;;5036266;28;20029;-53
2023/07/29 09:51:31;;;;;;;4.35;2.00;;;22.40;99.90;;;;;;5033277;28;20036;-52
2023/07/29 09:53:58;;;;;;;3.05;2.00;;;22.60;99.90;;;;;;5037038;28;20033;-53
2023/07/29 09:56:26;;;;;;;3.85;2.00;;;23.00;99.90;;;;;;5040101;28;20033;-53
2023/07/29 09:58:52;;;;;;;3.20;2.10;;;23.00;99.90;;;;;;5037057;28;20037;-54
2023/07/29 10:01:18;;;;;;;3.03;2.00;;;23.20;99.90;;;;;;5035974;28;20712;-52
2023/07/29 10:03:45;;;;;;;5.18;2.00;;;23.40;99.90;;;;;;5035816;28;20469;-53
2023/07/29 10:06:11;;;;;;;3.60;2.03;;;23.40;99.90;;;;;;5038129;28;20048;-53
2023/07/29 10:08:39;;;;;;;2.97;2.00;;;23.20;99.90;;;;;;5038224;28;20041;-53
2023/07/29 10:11:07;;;;;;;3.60;2.20;;;23.30;99.90;;;;;;5035940;28;20044;-54
2023/07/29 10:13:33;;;;;;;3.55;1.85;;;23.20;99.90;;;;;;5037026;28;20524;-53
2023/07/29 10:16:02;;;;;;;3.22;1.63;;;23.00;99.90;;;;;;5036891;28;20435;-54
2023/07/29 10:18:28;;;;;;;2.53;1.80;;;23.20;99.90;;;;;;5038896;28;20480;-53
2023/07/29 10:20:56;;;;;;;4.03;1.65;;;23.10;99.90;;;;;;5036592;28;20041;-54
2023/07/29 10:23:22;;;;;;;4.50;1.67;;;23.20;99.90;;;;;;5029700;28;20436;-53
2023/07/29 10:25:54;;;;;;;5.38;1.80;;;23.60;99.90;;;;;;5038237;28;20041;-52
2023/07/29 10:28:25;;;;;;;9.85;1.65;;;23.70;99.90;;;;;;5039081;28;20115;-53
2023/07/29 10:30:52;;;;;;;2.85;1.73;;;23.60;99.90;;;;;;5039580;28;20087;-55
2023/07/29 10:33:17;;;;;;;2.90;1.75;;;23.60;99.90;;;;;;5034634;28;20045;-54
2023/07/29 10:35:43;;;;;;;4.07;1.80;;;23.40;99.90;;;;;;5037707;28;20250;-54
2023/07/29 10:38:10;;;;;;;2.92;1.85;;;23.30;99.90;;;;;;5035886;28;20036;-53
2023/07/29 10:40:50;;;;;;;3.88;1.70;;;23.40;99.90;;;;;;5036067;28;20154;-55
2023/07/29 10:43:27;;;;;;;3.47;1.70;;;23.50;99.90;;;;;;5034934;28;20377;-53
2023/07/29 10:45:53;;;;;;;3.45;1.80;;;23.70;99.90;;;;;;5038726;28;20029;-54
2023/07/29 10:48:34;;;;;;;4.55;1.58;;;23.80;99.90;;;;;;5037298;28;20047;-53
2023/07/29 10:51:25;;;;;;;4.00;1.92;;;23.70;99.90;;;;;;5036327;28;20492;-52
2023/07/29 10:54:03;;;;;;;7.68;2.15;;;23.60;99.90;;;;;;5027543;28;20065;-53
2023/07/29 10:56:31;;;;;;;4.10;1.95;;;23.40;99.90;;;;;;5038397;28;20060;-52
2023/07/29 10:59:23;;;;;;;4.32;1.85;;;23.40;99.90;;;;;;5036908;28;20162;-54
2023/07/29 11:01:59;;;;;;;3.45;1.90;;;23.40;99.90;;;;;;5024050;28;20035;-52
2023/07/29 11:04:30;;;;;;;4.90;1.92;;;23.30;99.90;;;;;;5035151;28;20065;-54
2023/07/29 11:07:07;;;;;;;4.28;1.98;;;23.30;99.90;;;;;;5036248;28;20063;-54
2023/07/29 11:10:04;;;;;;;1.88;1.65;;;23.20;99.90;;;;;;5036395;28;20040;-54
2023/07/29 11:12:47;;;;;;;3.33;2.03;;;23.10;99.90;;;;;;5035035;28;20033;-52
2023/07/29 11:15:14;;;;;;;3.17;1.80;;;23.00;99.90;;;;;;5034170;28;20071;-54
2023/07/29 11:17:48;;;;;;;2.25;1.80;;;23.10;99.90;;;;;;5036629;28;20805;-54
2023/07/29 11:20:14;;;;;;;;;;;23.00;99.90;;;;;;5033123;28;20114;-60
2023/07/29 11:22:40;;;;;;;3.60;1.80;;;23.00;99.90;;;;;;5035621;28;20584;-53
2023/07/29 11:25:08;;;;;;;2.08;1.60;;;23.40;99.90;;;;;;5036366;28;20037;-53
2023/07/29 11:27:34;;;;;;;5.07;1.80;;;23.50;99.90;;;;;;5035382;28;20037;-54
2023/07/29 11:30:08;;;;;;;4.43;2.10;;;23.60;99.90;;;;;;5035546;28;20039;-54
2023/07/29 11:32:35;;;;;;;3.65;1.80;;;23.70;99.90;;;;;;5035020;28;20559;-56
2023/07/29 11:35:10;;;;;;;4.03;1.83;;;24.00;99.90;;;;;;5036067;28;20037;-53
2023/07/29 11:37:37;;;;;;;5.95;1.88;;;23.90;99.90;;;;;;5035063;28;20114;-53
2023/07/29 11:40:04;;;;;;;2.95;1.98;;;24.00;99.90;;;;;;5035417;28;20086;-53
2023/07/29 11:42:35;;;;;;;3.40;1.80;;;23.90;99.90;;;;;;5034985;28;20033;-53
2023/07/29 11:45:03;;;;;;;4.38;1.90;;;23.90;99.90;;;;;;5035633;28;20501;-53
2023/07/29 11:47:29;;;;;;;5.45;1.90;;;24.10;99.90;;;;;;5035644;28;20042;-53
2023/07/29 11:49:58;;;;;;;2.10;1.77;;;24.20;99.90;;;;;;5035534;28;20037;-54
2023/07/29 11:52:24;;;;;;;3.63;2.10;;;24.20;99.90;;;;;;5034241;28;20423;-52
2023/07/29 11:54:50;;;;;;;2.70;1.83;;;24.20;99.90;;;;;;5035648;28;20056;-53
2023/07/29 11:57:18;;;;;;;4.28;1.70;;;24.20;99.90;;;;;;5031188;28;20041;-54
2023/07/29 11:59:44;;;;;;;6.90;2.10;;;24.00;99.90;;;;;;5031304;28;20042;-54
2023/07/29 12:02:19;;;;;;;2.75;1.80;;;23.90;99.90;;;;;;5034948;28;20742;-54
2023/07/29 12:04:46;;;;;;;10.18;2.30;;;24.00;99.90;;;;;;5035008;28;20135;-53
2023/07/29 12:07:14;;;;;;;3.28;1.83;;;24.10;99.90;;;;;;5039217;28;20040;-53
2023/07/29 12:09:41;;;;;;;3.38;2.10;;;24.20;99.90;;;;;;5038872;28;21471;-53
2023/07/29 12:12:07;;;;;;;3.30;1.92;;;24.30;99.90;;;;;;5039142;28;20064;-54
2023/07/29 12:14:33;;;;;;;5.05;2.05;;;24.30;99.90;;;;;;5037341;28;20091;-55
2023/07/29 12:17:04;;;;;;;3.40;1.80;;;24.30;99.90;;;;;;5038356;28;20057;-54
2023/07/29 12:19:37;;;;;;;4.80;1.90;;;24.10;99.90;;;;;;5021387;28;20139;-54
2023/07/29 12:22:03;;;;;;;;;;;24.00;99.90;;;;;;5039508;28;20032;-53
2023/07/29 12:24:33;;;;;;;4.05;2.10;;;24.20;99.90;;;;;;5040262;28;19921;-56
2023/07/29 12:26:59;;;;;;;4.32;1.70;;;24.20;99.90;;;;;;5037524;28;20614;-53
2023/07/29 12:29:26;;;;;;;4.22;1.80;;;24.20;99.90;;;;;;5038239;28;20036;-53
2023/07/29 12:32:03;;;;;;;4.22;1.90;;;24.40;99.90;;;;;;5040808;28;20090;-54
2023/07/29 12:34:30;;;;;;;2.70;1.92;;;23.90;99.90;;;;;;5037170;28;20432;-54
2023/07/29 12:36:58;;;;;;;3.97;2.15;;;23.90;99.90;;;;;;5037705;28;20565;-53
2023/07/29 12:39:30;;;;;;;5.47;2.45;;;24.10;99.90;;;;;;5036652;28;20041;-53
2023/07/29 12:41:58;;;;;;;4.75;1.90;;;24.20;99.90;;;;;;5036650;28;20043;-54
2023/07/29 12:44:24;;;;;;;3.17;2.15;;;24.30;99.90;;;;;;5045995;28;20029;-54
2023/07/29 12:46:51;;;;;;;4.95;2.10;;;24.30;99.90;;;;;;5036022;28;20199;-52